Porto Di Livorno — IFPU2 — position and weather

sailwx.info

Track history (hours):
 
Tides and Currents Weather Stations Pressure Air Temp Water Temp Dewpoint Dewpoint Depression Visibility Wind Speed Wind Dir Waves Ship Positions

Porto Di Livorno

Last reported at 2014-Sep-30 18:33 UTC. Time now 2014-Sep-30 19:59 UTC.
Position N 43°34' E 010°18'.

Length 24 m; draft 6.1 m.

Type: Tug. MMSI: 247194299.

Date/timePositionNaut miles runAvg speedWind from/ knotsBaromVisibWave heightAir tempDewpointWater temp
2014-Sep-30 18:33N 43°34' E 010°18'0 0.0
2014-Sep-30 17:33N 43°34' E 010°18'0 0.0
2014-Sep-30 16:33N 43°34' E 010°18'1 0.6
2014-Sep-30 15:33N 43°33' E 010°18'1 0.6
2014-Sep-30 14:33N 43°34' E 010°18'0 0.0
2014-Sep-30 13:33N 43°34' E 010°18'0 0.5
2014-Sep-30 12:33N 43°33' E 010°18'2 2.1
2014-Sep-30 11:33N 43°32' E 010°16'3 2.5
2014-Sep-30 10:33N 43°34' E 010°18'1 1.2
2014-Sep-30 09:33N 43°33' E 010°18'1 1.2
2014-Sep-30 08:33N 43°34' E 010°18'0 0.0
2014-Sep-30 07:33N 43°34' E 010°18'1 1.5
2014-Sep-30 06:33N 43°35' E 010°19'1 1.4
2014-Sep-30 05:33N 43°34' E 010°18'0 0.1
2014-Sep-30 04:33N 43°34' E 010°18'0 0.0
2014-Sep-30 03:33N 43°34' E 010°18'0 0.0
2014-Sep-30 02:33N 43°34' E 010°18'0 0.0
2014-Sep-30 01:33N 43°34' E 010°18'0 0.0
2014-Sep-30 00:33N 43°34' E 010°18'0 0.0
2014-Sep-29 23:33N 43°34' E 010°18'0 0.0
2014-Sep-29 22:33N 43°34' E 010°18'0 0.0
2014-Sep-29 21:33N 43°34' E 010°18'0 0.0
2014-Sep-29 20:33N 43°34' E 010°18'0 0.0
2014-Sep-29 19:33N 43°34' E 010°18'0 0.0
2014-Sep-29 18:33N 43°34' E 010°18'0 0.3
2014-Sep-29 17:33N 43°33' E 010°18'1 0.5
2014-Sep-29 16:33N 43°34' E 010°18'0 0.0
2014-Sep-28 16:28N 43°34' E 010°18'0 0.1
2014-Sep-28 15:33N 43°34' E 010°18'0 0.1
2014-Sep-28 14:33N 43°34' E 010°18'0 0.0
2014-Sep-28 13:33N 43°34' E 010°18'0 0.0
2014-Sep-28 12:33N 43°34' E 010°18'0 0.0
2014-Sep-28 11:33N 43°34' E 010°18'0 0.0
2014-Sep-28 10:33N 43°34' E 010°18'0 0.0
2014-Sep-28 09:33N 43°34' E 010°18'0 0.0
2014-Sep-28 08:33N 43°34' E 010°18'0 0.0
2014-Sep-28 07:33N 43°34' E 010°18'0 0.0
2014-Sep-28 06:33N 43°34' E 010°18'0 0.0
2014-Sep-28 05:33N 43°34' E 010°18'0 0.0
2014-Sep-28 04:33N 43°34' E 010°18'0 0.0
2014-Sep-28 03:33N 43°34' E 010°18'0 0.0
2014-Sep-28 02:33N 43°34' E 010°18'0 0.0
2014-Sep-28 01:33N 43°34' E 010°18'0 0.0
2014-Sep-28 00:33N 43°34' E 010°18'0 0.0
2014-Sep-27 23:33N 43°34' E 010°18'0 0.0
2014-Sep-27 22:33N 43°34' E 010°18'0 0.0
2014-Sep-27 21:33N 43°34' E 010°18'0 0.0
2014-Sep-27 20:33N 43°34' E 010°18'0 0.0
2014-Sep-27 19:33N 43°34' E 010°18'0 0.0
2014-Sep-27 18:33N 43°34' E 010°18'0 0.0
2014-Sep-27 17:33N 43°34' E 010°18'1 0.8
2014-Sep-27 16:33N 43°34' E 010°19'1 0.0
2014-Sep-26 16:19N 43°34' E 010°18'1 1.0
2014-Sep-26 15:33N 43°34' E 010°19'1 0.8
2014-Sep-26 14:33N 43°34' E 010°18'0 0.0
2014-Sep-26 13:33N 43°34' E 010°18'0 0.0
2014-Sep-26 12:33N 43°34' E 010°18'0 0.0
2014-Sep-26 11:33N 43°34' E 010°18'0 0.0
2014-Sep-26 10:33N 43°34' E 010°18'0 0.0
2014-Sep-26 09:33N 43°34' E 010°18'1 1.5
2014-Sep-26 08:33N 43°35' E 010°19'1 1.1
2014-Sep-26 07:33N 43°34' E 010°18'0 0.0
2014-Sep-26 06:33N 43°34' E 010°18'1 0.5
2014-Sep-26 05:33N 43°34' E 010°18'3 3.3
2014-Sep-26 04:33N 43°32' E 010°16'3 2.6
2014-Sep-26 03:33N 43°34' E 010°18'0 0.0
2014-Sep-26 02:33N 43°34' E 010°18'0 0.0
2014-Sep-26 01:33N 43°34' E 010°18'0 0.0
2014-Sep-26 00:33N 43°34' E 010°18'0 0.0
2014-Sep-25 23:33N 43°34' E 010°18'0 0.0
2014-Sep-25 22:34N 43°34' E 010°18'1 1.0
2014-Sep-25 21:33N 43°35' E 010°18'2 1.6
2014-Sep-25 20:33N 43°33' E 010°18'0 0.2
2014-Sep-25 19:34N 43°33' E 010°18'1 1.2
2014-Sep-25 18:34N 43°34' E 010°19'1 0.6
2014-Sep-25 17:34N 43°34' E 010°18'1 1.1
2014-Sep-25 16:34N 43°35' E 010°19'1 0.0
2014-Sep-24 04:13N 43°34' E 010°18'0 0.0
2014-Sep-24 03:33N 43°34' E 010°18'0 0.0
2014-Sep-24 02:33N 43°34' E 010°18'0 0.0
2014-Sep-24 01:33N 43°34' E 010°18'0 0.0
2014-Sep-24 00:33N 43°34' E 010°18'0 0.0
2014-Sep-23 23:33N 43°34' E 010°18'0 0.0
2014-Sep-23 22:34N 43°34' E 010°18'0 0.0
2014-Sep-23 21:33N 43°34' E 010°18'1 0.7
2014-Sep-23 20:33N 43°33' E 010°17'2 1.7
2014-Sep-23 19:33N 43°35' E 010°18'1 1.0
2014-Sep-23 18:33N 43°34' E 010°18'0 0.0
2014-Sep-23 17:33N 43°34' E 010°18'1 1.2
2014-Sep-23 16:33N 43°35' E 010°19'1 0.0
2014-Sep-22 15:33N 43°34' E 010°18'0 0.0
2014-Sep-22 14:34N 43°34' E 010°18'0 0.0
2014-Sep-22 13:34N 43°34' E 010°18'0 0.2
2014-Sep-22 12:33N 43°34' E 010°18'0 0.2
2014-Sep-22 11:34N 43°34' E 010°18'1 0.7
2014-Sep-22 10:34N 43°34' E 010°18'0 0.4
2014-Sep-22 09:33N 43°34' E 010°18'1 0.6
2014-Sep-22 08:34N 43°34' E 010°19'2 1.9
2014-Sep-22 07:34N 43°33' E 010°17'1 0.7
2014-Sep-22 06:34N 43°33' E 010°18'0 0.4
2014-Sep-22 05:34N 43°34' E 010°18'0 0.0
2014-Sep-22 04:34N 43°34' E 010°18'0 0.0
2014-Sep-22 03:34N 43°34' E 010°18'0 0.0
2014-Sep-22 02:33N 43°34' E 010°18'0 0.0
2014-Sep-22 01:33N 43°34' E 010°18'0 0.0
2014-Sep-22 00:33N 43°34' E 010°18'0 0.0
2014-Sep-21 23:33N 43°34' E 010°18'0 0.0
2014-Sep-21 22:34N 43°34' E 010°18'0 0.0
2014-Sep-21 21:34N 43°34' E 010°18'0 0.0
2014-Sep-21 20:33N 43°34' E 010°18'0 0.0
2014-Sep-21 19:34N 43°34' E 010°18'0 0.0
2014-Sep-21 18:33N 43°34' E 010°18'0 0.3
2014-Sep-21 17:34N 43°34' E 010°18'1 1.1
2014-Sep-21 16:34N 43°35' E 010°18'  
Track history (hours):
 
Tides and Currents Weather Stations Pressure Air Temp Water Temp Dewpoint Dewpoint Depression Visibility Wind Speed Wind Dir Waves Ship Positions

Porto Di Livorno

Last reported at 2014-Sep-30 18:33 UTC. Time now 2014-Sep-30 19:59 UTC.
Position N 43°34' E 010°18'.

Length 24 m; draft 6.1 m.

Type: Tug. MMSI: 247194299.

Date/timePositionNaut miles runAvg speedWind from/ knotsBaromVisibWave heightAir tempDewpointWater temp
2014-Sep-30 18:33N 43°34' E 010°18'0 0.0
2014-Sep-30 17:33N 43°34' E 010°18'0 0.0
2014-Sep-30 16:33N 43°34' E 010°18'1 0.6
2014-Sep-30 15:33N 43°33' E 010°18'1 0.6
2014-Sep-30 14:33N 43°34' E 010°18'0 0.0
2014-Sep-30 13:33N 43°34' E 010°18'0 0.5
2014-Sep-30 12:33N 43°33' E 010°18'2 2.1
2014-Sep-30 11:33N 43°32' E 010°16'3 2.5
2014-Sep-30 10:33N 43°34' E 010°18'1 1.2
2014-Sep-30 09:33N 43°33' E 010°18'1 1.2
2014-Sep-30 08:33N 43°34' E 010°18'0 0.0
2014-Sep-30 07:33N 43°34' E 010°18'1 1.5
2014-Sep-30 06:33N 43°35' E 010°19'1 1.4
2014-Sep-30 05:33N 43°34' E 010°18'0 0.1
2014-Sep-30 04:33N 43°34' E 010°18'0 0.0
2014-Sep-30 03:33N 43°34' E 010°18'0 0.0
2014-Sep-30 02:33N 43°34' E 010°18'0 0.0
2014-Sep-30 01:33N 43°34' E 010°18'0 0.0
2014-Sep-30 00:33N 43°34' E 010°18'0 0.0
2014-Sep-29 23:33N 43°34' E 010°18'0 0.0
2014-Sep-29 22:33N 43°34' E 010°18'0 0.0
2014-Sep-29 21:33N 43°34' E 010°18'0 0.0
2014-Sep-29 20:33N 43°34' E 010°18'0 0.0
2014-Sep-29 19:33N 43°34' E 010°18'0 0.0
2014-Sep-29 18:33N 43°34' E 010°18'0 0.3
2014-Sep-29 17:33N 43°33' E 010°18'1 0.5
2014-Sep-29 16:33N 43°34' E 010°18'0 0.0
2014-Sep-28 16:28N 43°34' E 010°18'0 0.1
2014-Sep-28 15:33N 43°34' E 010°18'0 0.1
2014-Sep-28 14:33N 43°34' E 010°18'0 0.0
2014-Sep-28 13:33N 43°34' E 010°18'0 0.0
2014-Sep-28 12:33N 43°34' E 010°18'0 0.0
2014-Sep-28 11:33N 43°34' E 010°18'0 0.0
2014-Sep-28 10:33N 43°34' E 010°18'0 0.0
2014-Sep-28 09:33N 43°34' E 010°18'0 0.0
2014-Sep-28 08:33N 43°34' E 010°18'0 0.0
2014-Sep-28 07:33N 43°34' E 010°18'0 0.0
2014-Sep-28 06:33N 43°34' E 010°18'0 0.0
2014-Sep-28 05:33N 43°34' E 010°18'0 0.0
2014-Sep-28 04:33N 43°34' E 010°18'0 0.0
2014-Sep-28 03:33N 43°34' E 010°18'0 0.0
2014-Sep-28 02:33N 43°34' E 010°18'0 0.0
2014-Sep-28 01:33N 43°34' E 010°18'0 0.0
2014-Sep-28 00:33N 43°34' E 010°18'0 0.0
2014-Sep-27 23:33N 43°34' E 010°18'0 0.0
2014-Sep-27 22:33N 43°34' E 010°18'0 0.0
2014-Sep-27 21:33N 43°34' E 010°18'0 0.0
2014-Sep-27 20:33N 43°34' E 010°18'0 0.0
2014-Sep-27 19:33N 43°34' E 010°18'0 0.0
2014-Sep-27 18:33N 43°34' E 010°18'0 0.0
2014-Sep-27 17:33N 43°34' E 010°18'1 0.8
2014-Sep-27 16:33N 43°34' E 010°19'1 0.0
2014-Sep-26 16:19N 43°34' E 010°18'1 1.0
2014-Sep-26 15:33N 43°34' E 010°19'1 0.8
2014-Sep-26 14:33N 43°34' E 010°18'0 0.0
2014-Sep-26 13:33N 43°34' E 010°18'0 0.0
2014-Sep-26 12:33N 43°34' E 010°18'0 0.0
2014-Sep-26 11:33N 43°34' E 010°18'0 0.0
2014-Sep-26 10:33N 43°34' E 010°18'0 0.0
2014-Sep-26 09:33N 43°34' E 010°18'1 1.5
2014-Sep-26 08:33N 43°35' E 010°19'1 1.1
2014-Sep-26 07:33N 43°34' E 010°18'0 0.0
2014-Sep-26 06:33N 43°34' E 010°18'1 0.5
2014-Sep-26 05:33N 43°34' E 010°18'3 3.3
2014-Sep-26 04:33N 43°32' E 010°16'3 2.6
2014-Sep-26 03:33N 43°34' E 010°18'0 0.0
2014-Sep-26 02:33N 43°34' E 010°18'0 0.0
2014-Sep-26 01:33N 43°34' E 010°18'0 0.0
2014-Sep-26 00:33N 43°34' E 010°18'0 0.0
2014-Sep-25 23:33N 43°34' E 010°18'0 0.0
2014-Sep-25 22:34N 43°34' E 010°18'1 1.0
2014-Sep-25 21:33N 43°35' E 010°18'2 1.6
2014-Sep-25 20:33N 43°33' E 010°18'0 0.2
2014-Sep-25 19:34N 43°33' E 010°18'1 1.2
2014-Sep-25 18:34N 43°34' E 010°19'1 0.6
2014-Sep-25 17:34N 43°34' E 010°18'1 1.1
2014-Sep-25 16:34N 43°35' E 010°19'1 0.0
2014-Sep-24 04:13N 43°34' E 010°18'0 0.0
2014-Sep-24 03:33N 43°34' E 010°18'0 0.0
2014-Sep-24 02:33N 43°34' E 010°18'0 0.0
2014-Sep-24 01:33N 43°34' E 010°18'0 0.0
2014-Sep-24 00:33N 43°34' E 010°18'0 0.0
2014-Sep-23 23:33N 43°34' E 010°18'0 0.0
2014-Sep-23 22:34N 43°34' E 010°18'0 0.0
2014-Sep-23 21:33N 43°34' E 010°18'1 0.7
2014-Sep-23 20:33N 43°33' E 010°17'2 1.7
2014-Sep-23 19:33N 43°35' E 010°18'1 1.0
2014-Sep-23 18:33N 43°34' E 010°18'0 0.0
2014-Sep-23 17:33N 43°34' E 010°18'1 1.2
2014-Sep-23 16:33N 43°35' E 010°19'1 0.0
2014-Sep-22 15:33N 43°34' E 010°18'0 0.0
2014-Sep-22 14:34N 43°34' E 010°18'0 0.0
2014-Sep-22 13:34N 43°34' E 010°18'0 0.2
2014-Sep-22 12:33N 43°34' E 010°18'0 0.2
2014-Sep-22 11:34N 43°34' E 010°18'1 0.7
2014-Sep-22 10:34N 43°34' E 010°18'0 0.4
2014-Sep-22 09:33N 43°34' E 010°18'1 0.6
2014-Sep-22 08:34N 43°34' E 010°19'2 1.9
2014-Sep-22 07:34N 43°33' E 010°17'1 0.7
2014-Sep-22 06:34N 43°33' E 010°18'0 0.4
2014-Sep-22 05:34N 43°34' E 010°18'0 0.0
2014-Sep-22 04:34N 43°34' E 010°18'0 0.0
2014-Sep-22 03:34N 43°34' E 010°18'0 0.0
2014-Sep-22 02:33N 43°34' E 010°18'0 0.0
2014-Sep-22 01:33N 43°34' E 010°18'0 0.0
2014-Sep-22 00:33N 43°34' E 010°18'0 0.0
2014-Sep-21 23:33N 43°34' E 010°18'0 0.0
2014-Sep-21 22:34N 43°34' E 010°18'0 0.0
2014-Sep-21 21:34N 43°34' E 010°18'0 0.0
2014-Sep-21 20:33N 43°34' E 010°18'0 0.0
2014-Sep-21 19:34N 43°34' E 010°18'0 0.0
2014-Sep-21 18:33N 43°34' E 010°18'0 0.3
2014-Sep-21 17:34N 43°34' E 010°18'1 1.1
2014-Sep-21 16:34N 43°35' E 010°18'  

Dump ship's entire track history